createdAt,value
2023-02-16T00:01:28.831Z,21.45
2023-02-16T00:03:49.719Z,20.38
2023-02-16T00:06:15.146Z,18.60
2023-02-16T00:08:35.024Z,17.30
2023-02-16T00:11:13.456Z,21.15
2023-02-16T00:13:46.863Z,31.38
2023-02-16T00:16:21.958Z,38.42
2023-02-16T00:18:42.029Z,34.83
2023-02-16T00:21:02.634Z,32.58
2023-02-16T00:23:22.904Z,26.98
2023-02-16T00:25:42.670Z,28.38
2023-02-16T00:28:07.307Z,23.35
2023-02-16T00:30:27.106Z,24.55
2023-02-16T00:32:47.537Z,27.75
2023-02-16T00:35:18.747Z,26.13
2023-02-16T00:37:38.311Z,25.42
2023-02-16T00:39:57.879Z,28.58
2023-02-16T00:42:23.269Z,35.28
2023-02-16T00:44:52.451Z,33.60
2023-02-16T00:47:37.655Z,32.38
2023-02-16T00:49:57.699Z,28.83
2023-02-16T00:52:23.870Z,28.73
2023-02-16T00:54:43.660Z,29.33
2023-02-16T00:57:03.639Z,33.25
2023-02-16T00:59:23.929Z,33.83
2023-02-16T01:01:44.494Z,31.63
2023-02-16T01:04:07.162Z,31.65
2023-02-16T01:06:45.931Z,31.33
2023-02-16T01:09:34.015Z,26.08
2023-02-16T01:11:53.936Z,18.42
2023-02-16T01:14:14.069Z,17.00
2023-02-16T01:16:39.937Z,16.23
2023-02-16T01:18:59.544Z,18.70
2023-02-16T01:21:21.380Z,21.48
2023-02-16T01:23:41.242Z,30.02
2023-02-16T01:26:01.022Z,29.70
2023-02-16T01:28:23.124Z,30.55
2023-02-16T01:30:43.093Z,28.88
2023-02-16T01:33:02.796Z,25.88
2023-02-16T01:35:28.062Z,26.63
2023-02-16T01:37:49.206Z,25.42
2023-02-16T01:40:42.140Z,22.63
2023-02-16T01:43:24.092Z,21.60
2023-02-16T01:45:47.409Z,22.92
2023-02-16T01:48:19.972Z,24.90
2023-02-16T01:50:47.414Z,25.80
2023-02-16T01:53:28.827Z,24.00
2023-02-16T01:55:57.220Z,24.08
2023-02-16T01:58:41.354Z,23.95
2023-02-16T02:01:01.198Z,25.75
2023-02-16T02:03:44.516Z,24.70
2023-02-16T02:06:11.138Z,21.95
2023-02-16T02:08:58.500Z,23.25
2023-02-16T02:11:47.874Z,25.02
2023-02-16T02:14:23.604Z,26.92
2023-02-16T02:17:01.008Z,25.23
2023-02-16T02:19:20.934Z,24.30
2023-02-16T02:22:21.146Z,25.50
2023-02-16T02:24:53.976Z,28.35
2023-02-16T02:27:38.338Z,25.75
2023-02-16T02:30:11.091Z,22.83
2023-02-16T02:33:05.986Z,27.05
2023-02-16T02:35:45.786Z,21.23
2023-02-16T02:38:16.065Z,21.63
2023-02-16T02:40:59.169Z,23.38
2023-02-16T02:43:29.916Z,19.67
2023-02-16T02:46:03.143Z,24.88
2023-02-16T02:48:22.981Z,26.90
2023-02-16T02:51:07.135Z,22.95
2023-02-16T02:53:27.388Z,25.38
2023-02-16T02:56:08.613Z,22.90
2023-02-16T02:59:11.581Z,24.75
2023-02-16T03:01:33.132Z,28.52
2023-02-16T03:03:56.889Z,28.50
2023-02-16T03:06:26.296Z,27.58
2023-02-16T03:09:01.817Z,36.53
2023-02-16T03:11:42.713Z,35.67
2023-02-16T03:14:13.364Z,37.85
2023-02-16T03:16:47.726Z,39.08
2023-02-16T03:19:29.518Z,30.20
2023-02-16T03:22:08.563Z,28.40
2023-02-16T03:24:50.498Z,27.45
2023-02-16T03:27:31.745Z,31.70
2023-02-16T03:29:52.693Z,36.70
2023-02-16T03:32:12.863Z,41.00
2023-02-16T03:34:35.832Z,44.47
2023-02-16T03:37:00.027Z,43.75
2023-02-16T03:39:20.477Z,39.58
2023-02-16T03:41:47.353Z,37.80
2023-02-16T03:44:07.463Z,39.60
2023-02-16T03:46:27.681Z,38.55
2023-02-16T03:48:47.394Z,40.97
2023-02-16T03:51:07.463Z,40.00
2023-02-16T03:53:27.034Z,37.00
2023-02-16T03:55:47.840Z,43.67
2023-02-16T03:58:08.947Z,44.67
2023-02-16T04:00:29.586Z,47.80
2023-02-16T04:02:49.302Z,43.75
2023-02-16T04:05:09.460Z,49.90
2023-02-16T04:07:31.756Z,47.20
2023-02-16T04:09:51.506Z,49.58
2023-02-16T04:12:31.216Z,48.85
2023-02-16T04:14:51.317Z,47.85
2023-02-16T04:17:10.946Z,50.17
2023-02-16T04:19:31.102Z,52.42
2023-02-16T04:21:53.889Z,50.35
2023-02-16T04:24:13.710Z,49.17
2023-02-16T04:26:33.513Z,47.85
2023-02-16T04:28:53.676Z,49.47
2023-02-16T04:31:13.922Z,48.40
2023-02-16T04:33:33.827Z,48.42
2023-02-16T04:35:53.425Z,47.97
2023-02-16T04:38:13.016Z,46.53
2023-02-16T04:40:32.987Z,46.55
2023-02-16T04:42:52.488Z,47.75
2023-02-16T04:45:12.858Z,48.72
2023-02-16T04:47:32.672Z,47.22
2023-02-16T04:49:53.385Z,48.08
2023-02-16T04:52:13.503Z,42.45
2023-02-16T04:54:33.927Z,43.75
2023-02-16T04:56:53.754Z,43.83
2023-02-16T04:59:14.612Z,48.67
2023-02-16T05:01:34.667Z,45.22
2023-02-16T05:03:55.117Z,52.00
2023-02-16T05:06:14.870Z,96.10
2023-02-16T05:08:34.840Z,63.72
2023-02-16T05:11:13.052Z,61.25
2023-02-16T05:13:51.312Z,64.38
2023-02-16T05:16:11.704Z,59.88
2023-02-16T05:18:31.758Z,56.80
2023-02-16T05:21:09.815Z,54.30
2023-02-16T05:23:30.042Z,51.92
2023-02-16T05:25:50.028Z,50.22
2023-02-16T05:28:09.881Z,47.83
2023-02-16T05:30:29.875Z,48.17
2023-02-16T05:32:49.951Z,45.00
2023-02-16T05:35:09.682Z,48.92
2023-02-16T05:37:29.644Z,47.08
2023-02-16T05:39:52.176Z,40.22
2023-02-16T05:42:12.550Z,41.53
2023-02-16T05:44:32.520Z,41.95
2023-02-16T05:46:51.998Z,44.33
2023-02-16T05:49:12.931Z,43.55
2023-02-16T05:51:33.443Z,49.63
2023-02-16T05:53:53.431Z,48.40
2023-02-16T05:56:14.169Z,45.60
2023-02-16T05:58:34.644Z,47.38
2023-02-16T06:00:54.373Z,49.70
2023-02-16T06:03:14.080Z,52.35
2023-02-16T06:05:34.535Z,53.45
2023-02-16T06:07:54.829Z,53.00
2023-02-16T06:10:15.641Z,50.90
2023-02-16T06:12:35.642Z,55.63
2023-02-16T06:14:55.358Z,56.95
2023-02-16T06:17:15.416Z,45.58
2023-02-16T06:19:34.994Z,44.10
2023-02-16T06:21:54.588Z,40.67
2023-02-16T06:24:14.443Z,43.47
2023-02-16T06:26:34.916Z,42.63
2023-02-16T06:28:55.313Z,41.78
2023-02-16T06:31:15.509Z,44.85
2023-02-16T06:33:35.555Z,42.47
2023-02-16T06:35:55.279Z,44.95
2023-02-16T06:38:15.950Z,46.63
2023-02-16T06:40:35.440Z,79.60
2023-02-16T06:42:55.154Z,69.38
2023-02-16T06:45:14.660Z,61.42
2023-02-16T06:47:35.675Z,53.72
2023-02-16T06:49:55.784Z,52.65
2023-02-16T06:52:15.652Z,51.63
2023-02-16T06:54:35.893Z,51.28
2023-02-16T06:56:55.660Z,63.05
2023-02-16T06:59:15.871Z,62.30
2023-02-16T07:01:36.085Z,70.95
2023-02-16T07:03:57.078Z,61.38
2023-02-16T07:06:17.635Z,53.88
2023-02-16T07:08:40.016Z,52.47
2023-02-16T07:10:59.850Z,42.30
2023-02-16T07:13:19.686Z,43.45
2023-02-16T07:15:40.042Z,42.60
2023-02-16T07:18:00.188Z,43.88
2023-02-16T07:20:19.922Z,47.50
2023-02-16T07:22:40.200Z,49.08
2023-02-16T07:25:00.406Z,47.42
2023-02-16T07:27:20.878Z,44.08
2023-02-16T07:29:40.772Z,37.08
2023-02-16T07:32:01.936Z,37.63
2023-02-16T07:34:22.199Z,63.90
2023-02-16T07:36:43.797Z,43.13
2023-02-16T07:39:03.754Z,60.70
2023-02-16T07:41:23.742Z,57.17
2023-02-16T07:43:43.978Z,52.30
2023-02-16T07:46:04.761Z,56.40
2023-02-16T07:48:24.903Z,51.63
2023-02-16T07:50:44.499Z,44.58
2023-02-16T07:53:04.322Z,42.28
2023-02-16T07:55:24.285Z,24.88
2023-02-16T07:57:44.468Z,16.38
2023-02-16T08:00:08.113Z,15.52
2023-02-16T08:02:28.175Z,13.85
2023-02-16T08:04:49.047Z,17.25
2023-02-16T08:07:14.779Z,16.92
2023-02-16T08:09:34.897Z,16.48
2023-02-16T08:11:54.747Z,13.95
2023-02-16T08:14:15.691Z,17.85
2023-02-16T08:16:36.008Z,21.17
2023-02-16T08:18:59.345Z,19.98
2023-02-16T08:23:52.572Z,23.02
2023-02-16T08:26:16.507Z,25.30
2023-02-16T08:28:37.374Z,33.83
2023-02-16T08:31:03.026Z,51.33
2023-02-16T08:33:22.849Z,45.38
2023-02-16T08:35:43.340Z,54.63
2023-02-16T08:38:03.375Z,42.55
2023-02-16T08:40:24.659Z,50.90
2023-02-16T08:42:44.493Z,50.92
2023-02-16T08:45:06.749Z,52.55
2023-02-16T08:47:26.507Z,45.63
2023-02-16T08:49:47.133Z,52.08
2023-02-16T08:52:07.095Z,57.60
2023-02-16T08:54:29.552Z,36.58
2023-02-16T08:56:49.162Z,26.40
2023-02-16T08:59:08.732Z,52.95
2023-02-16T09:01:28.870Z,33.60
2023-02-16T09:03:49.596Z,37.47
2023-02-16T09:06:11.680Z,23.55
2023-02-16T09:08:32.165Z,19.00
2023-02-16T09:10:52.103Z,26.60
2023-02-16T09:13:15.511Z,28.83
2023-02-16T09:15:37.019Z,26.23
2023-02-16T09:17:58.250Z,30.63
2023-02-16T09:20:19.911Z,17.58
2023-02-16T09:25:08.173Z,16.38
2023-02-16T09:27:27.891Z,18.52
2023-02-16T09:29:49.987Z,14.73
2023-02-16T09:32:10.018Z,14.77
2023-02-16T09:34:30.124Z,14.45
2023-02-16T09:36:50.879Z,12.50
2023-02-16T09:39:11.619Z,12.90
2023-02-16T09:41:40.758Z,22.77
2023-02-16T09:44:12.534Z,19.90
2023-02-16T09:46:34.146Z,20.63
2023-02-16T09:48:54.335Z,17.77
2023-02-16T09:51:29.390Z,19.60
2023-02-16T09:54:19.771Z,18.00
2023-02-16T09:56:52.411Z,19.17
2023-02-16T09:59:40.361Z,19.25
2023-02-16T10:02:29.132Z,25.70
2023-02-16T10:05:08.037Z,24.40
2023-02-16T10:07:35.275Z,22.20
2023-02-16T10:09:56.636Z,23.15
2023-02-16T10:12:25.311Z,23.52
2023-02-16T10:15:00.697Z,20.73
2023-02-16T10:17:35.133Z,23.02
2023-02-16T10:20:12.448Z,16.00
2023-02-16T10:22:47.653Z,10.88
2023-02-16T10:25:20.160Z,13.63
2023-02-16T10:27:43.314Z,12.23
2023-02-16T10:32:44.017Z,13.57
2023-02-16T10:35:12.789Z,14.15
2023-02-16T10:38:11.836Z,14.63
2023-02-16T10:40:51.938Z,15.27
2023-02-16T10:43:18.344Z,16.15
2023-02-16T10:45:58.552Z,18.27
2023-02-16T10:48:22.691Z,16.27
2023-02-16T10:50:51.391Z,16.83
2023-02-16T10:53:37.360Z,18.02
2023-02-16T10:55:58.260Z,19.10
2023-02-16T10:58:28.490Z,17.50
2023-02-16T11:01:07.850Z,19.15
2023-02-16T11:03:32.798Z,17.70
2023-02-16T11:05:53.170Z,17.92
2023-02-16T11:08:13.502Z,17.40
2023-02-16T11:10:35.379Z,17.63
2023-02-16T11:12:58.988Z,17.38
2023-02-16T11:15:19.196Z,17.90
2023-02-16T11:17:51.906Z,18.92
2023-02-16T11:20:33.414Z,18.13
2023-02-16T11:22:53.309Z,17.90
2023-02-16T11:25:21.289Z,19.98
2023-02-16T11:27:56.962Z,18.52
2023-02-16T11:30:23.480Z,17.23
2023-02-16T11:32:43.388Z,17.45
2023-02-16T11:35:09.038Z,20.67
2023-02-16T11:37:32.623Z,18.95
2023-02-16T11:39:55.878Z,18.42
2023-02-16T11:42:39.903Z,17.33
2023-02-16T11:45:01.222Z,18.05
2023-02-16T11:47:26.911Z,17.25
2023-02-16T11:49:47.509Z,17.35
2023-02-16T11:52:22.905Z,16.15
2023-02-16T11:54:56.860Z,17.20
2023-02-16T11:57:27.822Z,18.77
2023-02-16T11:59:48.116Z,18.33
2023-02-16T12:02:26.321Z,19.17
2023-02-16T12:05:25.212Z,17.40
2023-02-16T12:08:03.423Z,19.13
2023-02-16T12:10:43.391Z,19.67
2023-02-16T12:13:15.389Z,18.90
2023-02-16T12:15:47.494Z,19.55
2023-02-16T12:18:30.715Z,19.08
2023-02-16T12:21:04.083Z,20.45
2023-02-16T12:26:12.365Z,19.00
2023-02-16T12:29:07.818Z,20.15
2023-02-16T12:32:04.622Z,19.05
2023-02-16T12:34:27.694Z,18.30
2023-02-16T12:39:45.505Z,20.30
2023-02-16T12:42:18.868Z,20.75
2023-02-16T12:44:45.410Z,18.65
2023-02-16T12:47:12.968Z,19.77
2023-02-16T12:49:54.419Z,20.25
2023-02-16T12:52:45.767Z,20.40
2023-02-16T12:55:43.304Z,22.15
2023-02-16T12:58:33.152Z,23.77
2023-02-16T13:02:44.569Z,24.23
2023-02-16T13:05:21.699Z,24.30
2023-02-16T13:07:44.094Z,25.70
2023-02-16T13:10:19.812Z,25.50
2023-02-16T13:12:46.714Z,26.83
2023-02-16T13:15:09.608Z,24.58
2023-02-16T13:17:57.934Z,23.38
2023-02-16T13:20:20.687Z,23.65
2023-02-16T13:22:46.903Z,23.15
2023-02-16T13:25:23.287Z,22.95
2023-02-16T13:27:58.338Z,21.50
2023-02-16T13:30:47.791Z,22.67
2023-02-16T13:33:14.241Z,23.20
2023-02-16T13:35:49.329Z,23.13
2023-02-16T13:38:25.175Z,21.60
2023-02-16T13:41:09.743Z,22.98
2023-02-16T13:43:32.998Z,21.67
2023-02-16T13:45:53.473Z,21.25
2023-02-16T13:48:36.879Z,20.05
2023-02-16T13:53:24.525Z,21.73
2023-02-16T13:55:45.537Z,20.67
2023-02-16T13:58:11.476Z,21.17
2023-02-16T14:00:47.363Z,21.90
2023-02-16T14:03:16.284Z,20.70
2023-02-16T14:05:41.946Z,20.13
2023-02-16T14:08:14.237Z,21.80
2023-02-16T14:11:06.287Z,23.02
2023-02-16T14:13:41.332Z,21.30
2023-02-16T14:16:29.170Z,23.00
2023-02-16T14:19:05.740Z,23.60
2023-02-16T14:21:41.717Z,23.13
2023-02-16T14:24:03.344Z,22.77
2023-02-16T14:26:24.160Z,23.75
2023-02-16T14:29:02.288Z,23.33
2023-02-16T14:31:25.404Z,24.58
2023-02-16T14:34:17.686Z,23.75
2023-02-16T14:37:20.716Z,25.83
2023-02-16T14:39:58.570Z,23.13
2023-02-16T14:42:30.010Z,24.58
2023-02-16T14:45:18.178Z,24.02
2023-02-16T14:47:50.533Z,25.17
2023-02-16T14:50:22.004Z,23.17
2023-02-16T14:53:07.095Z,26.73
2023-02-16T14:56:18.911Z,23.95
2023-02-16T14:59:02.441Z,24.27
2023-02-16T15:01:23.401Z,27.40
2023-02-16T15:03:45.784Z,24.30
2023-02-16T15:06:06.059Z,25.98
2023-02-16T15:08:36.678Z,25.60
2023-02-16T15:10:56.658Z,24.13
2023-02-16T15:13:22.577Z,25.20
2023-02-16T15:15:48.064Z,26.67
2023-02-16T15:18:14.680Z,23.50
2023-02-16T15:20:38.211Z,24.38
2023-02-16T15:23:00.704Z,24.38
2023-02-16T15:25:27.299Z,27.10
2023-02-16T15:28:00.304Z,23.92
2023-02-16T15:32:51.719Z,23.27
2023-02-16T15:35:21.006Z,22.65
2023-02-16T15:37:40.928Z,23.10
2023-02-16T15:40:25.611Z,20.20
2023-02-16T15:42:46.566Z,20.15
2023-02-16T15:45:32.655Z,19.67
2023-02-16T15:47:53.053Z,20.45
2023-02-16T15:50:13.976Z,19.73
2023-02-16T15:52:36.294Z,20.02
2023-02-16T15:54:57.102Z,20.63
2023-02-16T15:57:35.421Z,18.92
2023-02-16T15:59:58.474Z,18.98
2023-02-16T16:02:36.167Z,19.85
2023-02-16T16:04:59.628Z,20.05
2023-02-16T16:07:25.482Z,19.35
2023-02-16T16:09:46.801Z,22.70
2023-02-16T16:12:12.664Z,21.58
2023-02-16T16:14:39.882Z,23.25
2023-02-16T16:16:59.840Z,23.83
2023-02-16T16:19:35.098Z,23.20
2023-02-16T16:21:55.435Z,26.15
2023-02-16T16:24:33.430Z,25.05
2023-02-16T16:26:57.112Z,23.88
2023-02-16T16:29:40.849Z,23.70
2023-02-16T16:32:01.419Z,23.95
2023-02-16T16:34:36.740Z,22.65
2023-02-16T16:36:57.628Z,24.92
2023-02-16T16:39:17.338Z,26.17
2023-02-16T16:41:39.529Z,27.55
2023-02-16T16:43:59.629Z,29.60
2023-02-16T16:46:23.832Z,29.73
2023-02-16T16:48:46.777Z,26.33
2023-02-16T16:51:15.801Z,29.88
2023-02-16T16:54:03.499Z,28.52
2023-02-16T16:56:24.635Z,30.02
2023-02-16T16:58:49.725Z,32.38
2023-02-16T17:01:11.882Z,32.83
2023-02-16T17:03:31.579Z,31.45
2023-02-16T17:05:51.514Z,30.80
2023-02-16T17:08:12.041Z,31.30
2023-02-16T17:10:32.254Z,30.50
2023-02-16T17:12:55.483Z,27.55
2023-02-16T17:15:31.371Z,30.58
2023-02-16T17:17:51.497Z,27.65
2023-02-16T17:20:14.199Z,27.73
2023-02-16T17:22:33.709Z,27.38
2023-02-16T17:24:53.598Z,29.58
2023-02-16T17:27:14.222Z,29.00
2023-02-16T17:29:34.669Z,29.27
2023-02-16T17:31:54.601Z,29.90
2023-02-16T17:34:14.588Z,30.17
2023-02-16T17:36:34.460Z,26.92
2023-02-16T17:38:54.740Z,29.13
2023-02-16T17:41:25.164Z,29.05
2023-02-16T17:43:45.080Z,30.70
2023-02-16T17:46:05.673Z,33.05
2023-02-16T17:48:31.056Z,29.73
2023-02-16T17:50:51.178Z,35.35
2023-02-16T17:53:16.648Z,33.80
2023-02-16T17:55:36.657Z,32.20
2023-02-16T17:57:57.453Z,35.55
2023-02-16T18:00:19.644Z,30.60
2023-02-16T18:02:40.160Z,30.87
2023-02-16T18:04:59.866Z,28.80
2023-02-16T18:07:19.777Z,28.83
2023-02-16T18:09:39.975Z,28.45
2023-02-16T18:11:59.932Z,28.10
2023-02-16T18:14:19.569Z,27.05
2023-02-16T18:16:39.563Z,26.05
2023-02-16T18:19:00.341Z,28.33
2023-02-16T18:21:20.132Z,29.70
2023-02-16T18:23:39.856Z,28.13
2023-02-16T18:25:59.760Z,28.90
2023-02-16T18:28:24.775Z,29.00
2023-02-16T18:30:47.089Z,27.73
2023-02-16T18:33:06.765Z,27.88
2023-02-16T18:35:26.444Z,28.63
2023-02-16T18:37:46.882Z,28.92
2023-02-16T18:40:10.474Z,28.38
2023-02-16T18:42:30.427Z,27.55
2023-02-16T18:44:49.982Z,27.85
2023-02-16T18:47:09.738Z,27.88
2023-02-16T18:49:29.763Z,30.67
2023-02-16T18:51:49.382Z,28.95
2023-02-16T18:54:09.703Z,31.58
2023-02-16T18:56:29.879Z,26.35
2023-02-16T18:58:49.861Z,27.83
2023-02-16T19:01:26.483Z,27.13
2023-02-16T19:03:46.745Z,29.13
2023-02-16T19:06:07.590Z,33.38
2023-02-16T19:08:27.335Z,35.15
2023-02-16T19:10:46.980Z,33.78
2023-02-16T19:13:06.844Z,33.40
2023-02-16T19:15:26.987Z,27.85
2023-02-16T19:17:47.476Z,27.63
2023-02-16T19:20:10.870Z,28.55
2023-02-16T19:22:33.011Z,27.65
2023-02-16T19:24:52.874Z,25.97
2023-02-16T19:27:12.558Z,29.33
2023-02-16T19:29:32.657Z,31.10
2023-02-16T19:31:52.711Z,29.77
2023-02-16T19:34:13.176Z,27.30
2023-02-16T19:36:33.628Z,34.15
2023-02-16T19:38:53.476Z,34.72
2023-02-16T19:41:22.539Z,36.70
2023-02-16T19:43:43.151Z,33.38
2023-02-16T19:46:04.617Z,36.47
2023-02-16T19:48:24.625Z,28.98
2023-02-16T19:50:45.181Z,34.20
2023-02-16T19:53:04.968Z,33.55
2023-02-16T19:55:24.651Z,35.70
2023-02-16T19:57:44.741Z,33.67
2023-02-16T20:00:05.241Z,35.53
2023-02-16T20:02:24.860Z,31.30
2023-02-16T20:04:45.073Z,32.28
2023-02-16T20:07:05.450Z,32.50
2023-02-16T20:09:25.867Z,31.25
2023-02-16T20:11:45.725Z,36.80
2023-02-16T20:14:05.975Z,40.85
2023-02-16T20:16:26.734Z,38.35
2023-02-16T20:18:47.198Z,37.17
2023-02-16T20:21:11.753Z,33.10
2023-02-16T20:23:32.454Z,31.83
2023-02-16T20:25:52.201Z,30.02
2023-02-16T20:28:11.670Z,34.30
2023-02-16T20:30:31.352Z,32.08
2023-02-16T20:32:51.353Z,35.15
2023-02-16T20:35:11.589Z,37.58
2023-02-16T20:37:31.300Z,41.78
2023-02-16T20:39:50.994Z,37.70
2023-02-16T20:42:11.151Z,38.60
2023-02-16T20:44:30.756Z,37.63
2023-02-16T20:46:50.588Z,39.55
2023-02-16T20:49:11.371Z,38.80
2023-02-16T20:51:31.302Z,40.97
2023-02-16T20:53:51.631Z,35.05
2023-02-16T20:56:19.542Z,44.25
2023-02-16T20:58:42.159Z,40.40
2023-02-16T21:01:09.464Z,43.60
2023-02-16T21:03:29.721Z,45.30
2023-02-16T21:05:49.951Z,49.95
2023-02-16T21:08:10.006Z,53.15
2023-02-16T21:10:30.295Z,57.85
2023-02-16T21:12:49.837Z,63.78
2023-02-16T21:15:10.249Z,57.75
2023-02-16T21:17:30.114Z,46.72
2023-02-16T21:19:49.851Z,45.45
2023-02-16T21:22:09.522Z,48.25
2023-02-16T21:24:29.024Z,46.75
2023-02-16T21:26:48.636Z,45.70
2023-02-16T21:29:08.294Z,66.15
2023-02-16T21:31:28.549Z,64.30
2023-02-16T21:33:49.115Z,58.47
2023-02-16T21:36:17.873Z,54.88
2023-02-16T21:38:39.690Z,58.75
2023-02-16T21:41:28.445Z,57.75
2023-02-16T21:43:48.438Z,61.17
2023-02-16T21:46:09.058Z,47.72
2023-02-16T21:48:47.176Z,39.63
2023-02-16T21:51:07.338Z,50.63
2023-02-16T21:53:29.442Z,49.55
2023-02-16T21:56:08.205Z,49.93
2023-02-16T21:58:32.476Z,45.33
2023-02-16T22:00:53.112Z,61.33
2023-02-16T22:03:13.676Z,56.85
2023-02-16T22:05:35.271Z,54.25
2023-02-16T22:07:55.585Z,52.38
2023-02-16T22:10:15.832Z,46.28
2023-02-16T22:12:35.884Z,41.03
2023-02-16T22:14:55.508Z,36.03
2023-02-16T22:17:15.654Z,36.70
2023-02-16T22:19:35.921Z,34.17
2023-02-16T22:21:55.698Z,36.13
2023-02-16T22:24:17.412Z,35.35
2023-02-16T22:26:37.126Z,38.88
2023-02-16T22:28:58.077Z,41.63
2023-02-16T22:31:20.072Z,46.22
2023-02-16T22:33:40.056Z,47.30
2023-02-16T22:36:09.344Z,39.97
2023-02-16T22:38:29.311Z,36.10
2023-02-16T22:40:49.187Z,33.30
2023-02-16T22:43:08.870Z,33.83
2023-02-16T22:45:29.787Z,33.00
2023-02-16T22:47:49.434Z,35.35
2023-02-16T22:50:09.524Z,31.33
2023-02-16T22:52:29.515Z,31.95
2023-02-16T22:54:51.090Z,33.90
2023-02-16T22:57:11.131Z,37.63
2023-02-16T22:59:30.982Z,40.88
2023-02-16T23:01:50.652Z,41.70
2023-02-16T23:04:14.575Z,41.35
2023-02-16T23:06:36.382Z,36.65
2023-02-16T23:09:02.174Z,38.08
2023-02-16T23:11:23.891Z,38.80
2023-02-16T23:13:43.847Z,40.05
2023-02-16T23:16:10.212Z,36.05
2023-02-16T23:18:30.434Z,37.03
2023-02-16T23:20:50.452Z,34.95
2023-02-16T23:23:10.346Z,35.92
2023-02-16T23:25:33.060Z,34.33
2023-02-16T23:27:53.775Z,35.35
2023-02-16T23:30:13.870Z,37.63
2023-02-16T23:32:33.722Z,37.67
2023-02-16T23:34:53.446Z,35.53
2023-02-16T23:37:13.320Z,38.13
2023-02-16T23:39:32.954Z,41.80
2023-02-16T23:41:52.695Z,42.22
2023-02-16T23:44:14.116Z,41.17
2023-02-16T23:46:34.328Z,38.67
2023-02-16T23:48:54.524Z,38.22
2023-02-16T23:51:14.291Z,36.80
2023-02-16T23:53:34.441Z,44.97
2023-02-16T23:56:16.695Z,43.20
2023-02-16T23:58:41.251Z,33.15
